メインページ
METAR-TAF:

METAR-TAF

空港 :

Roscommon County - Blodgett Memorial Airport

Houghton Lake, ミシガン州, アメリカ合衆国

緯度: 44-21-04N, 経度: 084-40-27W, 海抜: 350m

現時点の気象観測

当レポートは50分前の01:53(UTC)に作成
西/北西の風 6kt
気温 -4°C
湿度 68%
気圧 1026 hPa
視程: 16.1km
高度2900ftの曇り

METAR: KHTL 070153Z AUTO 30006KT 10SM OVC029 M04/M09 A3029 RMK AO2 SLP274 T10441094

時間: 21:43 (02:43 UTC)


TAF: 見つかりません

4,000以上の空港の気象観測と天気予報(METAR報とTAF報)

利用可能な観測所は地図上に黄色い丸と赤い丸で示す。

丸の上にカーソルを重ねると観測所名を参照できる。

次にクリックすると気象観測と天気予報を参照できる。

マップの切り替え:黒色「×」印の緑ボタンをクリックして拡大、「-」印の緑ボタンをクリックして縮小、緑色の三角印をクリックして隣りの地図に切り替え


METAR-TAF: